createdAt,value
2022-12-19T00:01:17.306Z,-0.20
2022-12-19T00:03:59.588Z,-0.21
2022-12-19T00:06:43.797Z,-0.27
2022-12-19T00:09:24.787Z,-0.33
2022-12-19T00:12:04.721Z,-0.34
2022-12-19T00:14:48.057Z,-0.30
2022-12-19T00:17:29.025Z,-0.34
2022-12-19T00:20:09.487Z,-0.33
2022-12-19T00:22:51.844Z,-0.30
2022-12-19T00:25:33.234Z,-0.31
2022-12-19T00:28:16.757Z,-0.32
2022-12-19T00:31:02.066Z,-0.29
2022-12-19T00:33:43.335Z,-0.27
2022-12-19T00:36:27.889Z,-0.26
2022-12-19T00:39:10.441Z,-0.20
2022-12-19T00:41:51.292Z,-0.21
2022-12-19T00:44:33.887Z,-0.22
2022-12-19T00:47:16.104Z,-0.21
2022-12-19T00:49:57.066Z,-0.22
2022-12-19T00:52:36.951Z,-0.23
2022-12-19T00:55:31.030Z,-0.24
2022-12-19T00:58:11.544Z,-0.24
2022-12-19T01:00:52.940Z,-0.26
2022-12-19T01:03:32.712Z,-0.25
2022-12-19T01:06:12.541Z,-0.26
2022-12-19T01:08:52.370Z,-0.21
2022-12-19T01:11:54.910Z,-0.24
2022-12-19T01:14:36.009Z,-0.24
2022-12-19T01:17:15.760Z,-0.22
2022-12-19T01:19:55.550Z,-0.20
2022-12-19T01:22:37.363Z,-0.19
2022-12-19T01:25:18.662Z,-0.21
2022-12-19T01:27:59.819Z,-0.25
2022-12-19T01:30:40.104Z,-0.20
2022-12-19T01:33:21.800Z,-0.18
2022-12-19T01:36:07.590Z,-0.22
2022-12-19T01:38:50.621Z,-0.19
2022-12-19T01:41:31.623Z,-0.14
2022-12-19T01:44:11.658Z,-0.12
2022-12-19T01:46:53.642Z,-0.09
2022-12-19T01:49:36.807Z,-0.01
2022-12-19T01:52:22.311Z,0.04
2022-12-19T01:55:07.646Z,0.08
2022-12-19T01:57:48.080Z,0.10
2022-12-19T02:00:27.866Z,0.15
2022-12-19T02:03:08.605Z,0.18
2022-12-19T02:05:52.458Z,0.18
2022-12-19T02:08:45.554Z,0.17
2022-12-19T02:11:26.857Z,0.19
2022-12-19T02:14:06.636Z,0.21
2022-12-19T02:16:49.038Z,0.21
2022-12-19T02:19:46.853Z,0.26
2022-12-19T02:22:29.539Z,0.25
2022-12-19T02:25:14.680Z,0.24
2022-12-19T02:28:16.667Z,0.28
2022-12-19T02:31:00.998Z,0.29
2022-12-19T02:33:46.626Z,0.32
2022-12-19T02:36:30.386Z,0.33
2022-12-19T02:39:15.479Z,0.37
2022-12-19T02:41:57.487Z,0.40
2022-12-19T02:44:38.616Z,0.45
2022-12-19T02:47:21.536Z,0.46
2022-12-19T02:50:02.796Z,0.49
2022-12-19T02:52:56.030Z,0.53
2022-12-19T02:55:38.568Z,0.52
2022-12-19T02:58:29.033Z,0.55
2022-12-19T03:01:12.656Z,0.60
2022-12-19T03:03:54.980Z,0.60
2022-12-19T03:06:39.449Z,0.65
2022-12-19T03:09:24.155Z,0.63
2022-12-19T03:12:15.609Z,0.61
2022-12-19T03:14:57.370Z,0.63
2022-12-19T03:17:38.843Z,0.65
2022-12-19T03:20:20.148Z,0.67
2022-12-19T03:23:00.012Z,0.71
2022-12-19T03:25:39.823Z,0.76
2022-12-19T03:28:22.539Z,0.77
2022-12-19T03:31:02.799Z,0.75
2022-12-19T03:33:44.072Z,0.78
2022-12-19T03:36:27.246Z,0.80
2022-12-19T03:39:08.533Z,0.79
2022-12-19T03:42:07.301Z,0.79
2022-12-19T03:44:49.276Z,0.81
2022-12-19T03:47:31.903Z,0.83
2022-12-19T03:50:11.664Z,0.82
2022-12-19T03:52:52.674Z,0.83
2022-12-19T03:55:33.187Z,0.84
2022-12-19T03:58:17.869Z,0.87
2022-12-19T04:01:01.217Z,0.86
2022-12-19T04:03:41.985Z,0.89
2022-12-19T04:06:23.873Z,0.87
2022-12-19T04:09:04.739Z,0.93
2022-12-19T04:11:44.930Z,0.93
2022-12-19T04:14:26.508Z,0.94
2022-12-19T04:17:10.245Z,0.93
2022-12-19T04:19:54.827Z,0.93
2022-12-19T04:22:37.269Z,0.97
2022-12-19T04:25:19.272Z,0.99
2022-12-19T04:28:00.138Z,1.01
2022-12-19T04:30:40.866Z,1.04
2022-12-19T04:33:20.959Z,1.07
2022-12-19T04:36:02.048Z,1.08
2022-12-19T04:38:41.820Z,1.10
2022-12-19T04:41:23.827Z,1.09
2022-12-19T04:44:04.739Z,1.08
2022-12-19T04:46:46.116Z,1.12
2022-12-19T04:49:29.511Z,1.09
2022-12-19T04:52:12.740Z,1.13
2022-12-19T04:54:53.436Z,1.13
2022-12-19T04:57:33.240Z,1.15
2022-12-19T05:00:15.797Z,1.17
2022-12-19T05:02:56.139Z,1.20
2022-12-19T05:05:37.471Z,1.20
2022-12-19T05:08:19.265Z,1.26
2022-12-19T05:11:02.458Z,1.32
2022-12-19T05:13:43.285Z,1.37
2022-12-19T05:16:23.156Z,1.38
2022-12-19T05:19:02.966Z,1.40
2022-12-19T05:21:42.700Z,1.41
2022-12-19T05:24:24.501Z,1.41
2022-12-19T05:27:05.761Z,1.41
2022-12-19T05:29:48.959Z,1.35
2022-12-19T05:32:33.631Z,1.32
2022-12-19T05:35:14.616Z,1.29
2022-12-19T05:37:54.364Z,1.27
2022-12-19T05:40:34.408Z,1.25
2022-12-19T05:43:17.600Z,1.18
2022-12-19T05:45:58.588Z,1.20
2022-12-19T05:48:39.068Z,1.21
2022-12-19T05:51:19.884Z,1.21
2022-12-19T05:54:02.182Z,1.27
2022-12-19T05:56:42.609Z,1.31
2022-12-19T05:59:22.432Z,1.32
2022-12-19T06:02:03.932Z,1.37
2022-12-19T06:04:45.224Z,1.35
2022-12-19T06:07:25.182Z,1.38
2022-12-19T06:10:07.107Z,1.38
2022-12-19T06:12:47.840Z,1.40
2022-12-19T06:15:29.665Z,1.41
2022-12-19T06:18:08.841Z,1.46
2022-12-19T06:20:57.389Z,1.44
2022-12-19T06:23:38.434Z,1.46
2022-12-19T06:26:20.509Z,1.44
2022-12-19T06:29:01.139Z,1.48
2022-12-19T06:31:40.951Z,1.52
2022-12-19T06:34:46.974Z,1.51
2022-12-19T06:37:21.383Z,1.35
2022-12-19T06:40:01.172Z,1.28
2022-12-19T06:42:40.891Z,1.31
2022-12-19T06:45:22.826Z,1.23
2022-12-19T06:48:03.771Z,1.19
2022-12-19T06:50:46.314Z,1.21
2022-12-19T06:53:26.559Z,1.18
2022-12-19T06:56:09.946Z,1.26
2022-12-19T06:58:50.974Z,1.24
2022-12-19T07:01:32.817Z,1.24
2022-12-19T07:04:14.314Z,1.24
2022-12-19T07:06:55.177Z,1.25
2022-12-19T07:09:35.163Z,1.31
2022-12-19T07:12:16.419Z,1.36
2022-12-19T07:14:56.393Z,1.37
2022-12-19T07:17:39.645Z,1.40
2022-12-19T07:20:20.671Z,1.43
2022-12-19T07:23:02.484Z,1.43
2022-12-19T07:25:45.453Z,1.43
2022-12-19T07:28:26.521Z,1.42
2022-12-19T07:31:09.856Z,1.45
2022-12-19T07:33:52.877Z,1.46
2022-12-19T07:36:35.864Z,1.46
2022-12-19T07:39:16.940Z,1.47
2022-12-19T07:41:58.314Z,1.48
2022-12-19T07:44:49.709Z,1.48
2022-12-19T07:47:32.703Z,1.51
2022-12-19T07:50:13.852Z,1.54
2022-12-19T07:52:53.175Z,1.55
2022-12-19T07:55:33.524Z,1.57
2022-12-19T07:58:14.920Z,1.59
2022-12-19T08:00:56.423Z,1.59
2022-12-19T08:03:39.903Z,1.60
2022-12-19T08:06:23.336Z,1.61
2022-12-19T08:09:01.607Z,1.62
2022-12-19T08:11:42.068Z,1.57
2022-12-19T08:14:23.151Z,1.61
2022-12-19T08:17:20.310Z,1.62
2022-12-19T08:20:03.192Z,1.63
2022-12-19T08:22:43.363Z,1.64
2022-12-19T08:25:23.195Z,1.67
2022-12-19T08:28:03.005Z,1.68
2022-12-19T08:30:43.078Z,1.66
2022-12-19T08:33:24.210Z,1.69
2022-12-19T08:36:06.844Z,1.69
2022-12-19T08:38:47.060Z,1.67
2022-12-19T08:41:26.875Z,1.71
2022-12-19T08:44:07.011Z,1.71
2022-12-19T08:46:50.239Z,1.73
2022-12-19T08:49:33.068Z,1.74
2022-12-19T08:52:14.032Z,1.74
2022-12-19T08:54:53.898Z,1.77
2022-12-19T08:57:33.681Z,1.77
2022-12-19T09:00:14.254Z,1.74
2022-12-19T09:02:56.571Z,1.76
2022-12-19T09:06:05.078Z,1.74
2022-12-19T09:08:38.703Z,1.76
2022-12-19T09:11:20.529Z,1.75
2022-12-19T09:14:05.167Z,1.75
2022-12-19T09:16:44.024Z,1.84
2022-12-19T09:19:22.275Z,1.84
2022-12-19T09:22:02.376Z,1.85
2022-12-19T09:24:44.207Z,1.86
2022-12-19T09:27:25.565Z,1.90
2022-12-19T09:30:07.471Z,1.92
2022-12-19T09:32:47.953Z,1.94
2022-12-19T09:35:30.419Z,1.95
2022-12-19T09:38:10.765Z,1.97
2022-12-19T09:40:54.125Z,2.00
2022-12-19T09:43:41.540Z,2.05
2022-12-19T09:46:21.965Z,2.07
2022-12-19T09:49:10.611Z,2.10
2022-12-19T09:51:54.910Z,2.15
2022-12-19T09:54:38.162Z,2.21
2022-12-19T09:57:19.909Z,2.30
2022-12-19T10:00:01.196Z,2.37
2022-12-19T10:02:42.642Z,2.42
2022-12-19T10:06:49.290Z,2.48
2022-12-19T10:08:31.597Z,2.50
2022-12-19T10:12:47.286Z,2.53
2022-12-19T10:14:23.149Z,2.59
2022-12-19T10:17:24.020Z,2.60
2022-12-19T10:20:17.489Z,2.69
2022-12-19T10:22:59.558Z,2.71
2022-12-19T10:25:43.850Z,2.81
2022-12-19T10:28:29.789Z,2.87
2022-12-19T10:31:21.093Z,2.96
2022-12-19T10:34:03.633Z,3.03
2022-12-19T10:37:13.282Z,3.13
2022-12-19T10:39:48.301Z,3.18
2022-12-19T10:42:29.982Z,3.19
2022-12-19T10:45:14.340Z,3.22
2022-12-19T10:47:55.983Z,3.29
2022-12-19T10:50:36.157Z,3.31
2022-12-19T10:53:16.242Z,3.35
2022-12-19T10:56:00.877Z,3.41
2022-12-19T10:58:43.841Z,3.43
2022-12-19T11:01:28.554Z,3.47
2022-12-19T11:04:15.017Z,3.53
2022-12-19T11:07:06.764Z,3.58
2022-12-19T11:10:12.388Z,3.61
2022-12-19T11:17:35.246Z,3.64
2022-12-19T11:23:02.720Z,3.71
2022-12-19T11:29:29.927Z,3.82
2022-12-19T11:29:35.058Z,3.76
2022-12-19T11:30:36.760Z,3.92
2022-12-19T11:30:41.630Z,3.85
2022-12-19T11:32:32.265Z,3.94
2022-12-19T11:34:38.532Z,3.99
2022-12-19T11:37:23.151Z,4.01
2022-12-19T11:40:05.897Z,3.99
2022-12-19T11:43:04.422Z,4.06
2022-12-19T11:45:52.141Z,4.09
2022-12-19T11:48:35.692Z,4.10
2022-12-19T11:51:18.447Z,4.13
2022-12-19T11:54:00.337Z,4.18
2022-12-19T11:56:41.345Z,4.20
2022-12-19T11:59:22.817Z,4.25
2022-12-19T12:02:19.758Z,4.24
2022-12-19T12:05:22.853Z,4.27
2022-12-19T12:09:52.609Z,4.29
2022-12-19T12:17:10.031Z,4.30
2022-12-19T12:25:59.618Z,4.35
2022-12-19T12:31:01.543Z,4.38
2022-12-19T12:31:07.036Z,4.42
2022-12-19T12:31:57.038Z,4.48
2022-12-19T12:31:58.650Z,4.47
2022-12-19T12:32:03.363Z,4.51
2022-12-19T12:35:19.236Z,4.53
2022-12-19T12:39:01.501Z,4.56
2022-12-19T12:42:02.415Z,4.60
2022-12-19T12:44:46.220Z,4.59
2022-12-19T12:47:28.088Z,4.63
2022-12-19T12:50:14.120Z,4.67
2022-12-19T12:52:55.854Z,4.72
2022-12-19T12:55:40.035Z,4.70
2022-12-19T12:58:38.733Z,4.76
2022-12-19T13:01:19.862Z,4.77
2022-12-19T13:04:05.641Z,4.80
2022-12-19T13:07:02.018Z,4.83
2022-12-19T13:09:42.270Z,4.85
2022-12-19T13:12:44.877Z,4.84
2022-12-19T13:15:48.544Z,4.88
2022-12-19T13:18:32.896Z,4.92
2022-12-19T13:21:14.178Z,4.93
2022-12-19T13:23:53.937Z,4.96
2022-12-19T13:26:45.695Z,4.97
2022-12-19T13:29:31.150Z,4.99
2022-12-19T13:32:12.114Z,5.02
2022-12-19T13:35:06.215Z,5.04
2022-12-19T13:40:00.233Z,5.05
2022-12-19T13:41:22.533Z,5.08
2022-12-19T13:44:03.791Z,5.12
2022-12-19T13:46:45.756Z,5.13
2022-12-19T13:49:28.816Z,5.14
2022-12-19T13:52:12.232Z,5.18
2022-12-19T13:54:53.160Z,5.17
2022-12-19T13:57:34.135Z,5.18
2022-12-19T14:00:18.287Z,5.21
2022-12-19T14:02:58.593Z,5.20
2022-12-19T14:06:15.996Z,5.18
2022-12-19T14:08:42.493Z,5.15
2022-12-19T14:11:53.388Z,5.14
2022-12-19T14:14:43.329Z,5.10
2022-12-19T14:17:23.286Z,5.09
2022-12-19T14:20:48.862Z,5.09
2022-12-19T14:23:03.585Z,5.11
2022-12-19T14:28:14.701Z,5.07
2022-12-19T14:28:54.611Z,5.11
2022-12-19T14:31:35.719Z,5.15
2022-12-19T14:36:04.879Z,5.14
2022-12-19T14:37:39.115Z,5.15
2022-12-19T14:40:29.433Z,5.10
2022-12-19T14:43:58.692Z,5.11
2022-12-19T14:51:51.618Z,5.09
2022-12-19T14:54:10.841Z,5.09
2022-12-19T14:54:48.514Z,5.09
2022-12-19T14:56:16.821Z,5.08
2022-12-19T14:58:53.139Z,5.05
2022-12-19T15:01:35.315Z,5.03
2022-12-19T15:04:48.111Z,5.01
2022-12-19T15:07:17.596Z,5.01
2022-12-19T15:10:58.962Z,4.98
2022-12-19T15:14:54.268Z,4.97
2022-12-19T15:16:25.157Z,4.96
2022-12-19T15:19:11.730Z,4.94
2022-12-19T15:21:52.803Z,4.94
2022-12-19T15:24:34.184Z,4.96
2022-12-19T15:27:16.220Z,4.97
2022-12-19T15:29:57.692Z,5.02
2022-12-19T15:32:39.724Z,5.01
2022-12-19T15:35:21.212Z,5.00
2022-12-19T15:38:02.565Z,4.98
2022-12-19T15:40:42.579Z,4.95
2022-12-19T15:44:01.975Z,4.93
2022-12-19T15:46:24.514Z,4.95
2022-12-19T15:49:05.784Z,4.94
2022-12-19T15:51:45.570Z,4.94
2022-12-19T15:57:29.231Z,4.90
2022-12-19T16:00:12.768Z,4.94
2022-12-19T16:03:22.571Z,5.02
2022-12-19T16:05:53.965Z,5.09
2022-12-19T16:08:34.002Z,5.08
2022-12-19T16:11:17.577Z,5.07
2022-12-19T16:13:58.442Z,5.02
2022-12-19T16:16:40.284Z,4.97
2022-12-19T16:19:25.245Z,4.99
2022-12-19T16:22:07.049Z,4.93
2022-12-19T16:24:47.397Z,4.90
2022-12-19T16:27:29.322Z,4.92
2022-12-19T16:30:18.932Z,4.97
2022-12-19T16:32:59.575Z,4.98
2022-12-19T16:36:03.732Z,5.00
2022-12-19T16:38:41.543Z,5.01
2022-12-19T16:41:22.110Z,5.02
2022-12-19T16:44:02.715Z,5.09
2022-12-19T16:46:48.677Z,5.20
2022-12-19T16:49:34.229Z,5.21
2022-12-19T16:52:15.272Z,5.17
2022-12-19T16:54:56.331Z,5.16
2022-12-19T16:57:36.118Z,5.21
2022-12-19T17:00:17.438Z,5.26
2022-12-19T17:03:01.191Z,5.25
2022-12-19T17:05:43.953Z,5.25
2022-12-19T17:08:25.164Z,5.29
2022-12-19T17:11:07.588Z,5.36
2022-12-19T17:13:50.397Z,5.47
2022-12-19T17:16:29.083Z,5.46
2022-12-19T17:19:09.479Z,5.42
2022-12-19T17:21:50.569Z,5.43
2022-12-19T17:24:31.928Z,5.50
2022-12-19T17:27:13.254Z,5.43
2022-12-19T17:29:53.252Z,5.41
2022-12-19T17:32:34.476Z,5.40
2022-12-19T17:35:25.708Z,5.33
2022-12-19T17:38:11.380Z,5.34
2022-12-19T17:40:53.456Z,5.34
2022-12-19T17:43:36.472Z,5.32
2022-12-19T17:46:19.310Z,5.24
2022-12-19T17:49:00.463Z,5.21
2022-12-19T17:51:40.259Z,5.21
2022-12-19T17:54:20.172Z,5.18
2022-12-19T17:57:00.211Z,5.17
2022-12-19T17:59:43.417Z,5.12
2022-12-19T18:02:25.119Z,5.09
2022-12-19T18:05:05.912Z,5.07
2022-12-19T18:07:47.355Z,5.03
2022-12-19T18:10:29.346Z,5.02
2022-12-19T18:13:11.926Z,5.02
2022-12-19T18:15:56.590Z,5.03
2022-12-19T18:18:37.555Z,5.03
2022-12-19T18:21:18.165Z,4.98
2022-12-19T18:23:58.853Z,5.00
2022-12-19T18:26:38.599Z,4.98
2022-12-19T18:29:18.404Z,4.95
2022-12-19T18:32:00.210Z,4.98
2022-12-19T18:34:41.347Z,4.96
2022-12-19T18:37:22.599Z,4.96
2022-12-19T18:40:02.644Z,4.92
2022-12-19T18:42:44.023Z,4.89
2022-12-19T18:45:29.103Z,4.81
2022-12-19T18:48:13.437Z,4.78
2022-12-19T18:50:54.506Z,4.74
2022-12-19T18:53:35.681Z,4.79
2022-12-19T18:56:17.318Z,4.81
2022-12-19T18:58:57.047Z,4.80
2022-12-19T19:01:36.960Z,4.83
2022-12-19T19:04:20.406Z,4.86
2022-12-19T19:07:01.292Z,4.88
2022-12-19T19:09:43.126Z,5.00
2022-12-19T19:12:43.437Z,5.04
2022-12-19T19:15:27.113Z,5.19
2022-12-19T19:18:09.732Z,5.22
2022-12-19T19:20:48.887Z,5.23
2022-12-19T19:23:29.756Z,5.25
2022-12-19T19:26:10.346Z,5.34
2022-12-19T19:28:52.394Z,5.31
2022-12-19T19:31:34.450Z,5.26
2022-12-19T19:34:15.027Z,5.26
2022-12-19T19:36:55.772Z,5.29
2022-12-19T19:39:35.790Z,5.27
2022-12-19T19:42:15.584Z,5.30
2022-12-19T19:44:55.480Z,5.33
2022-12-19T19:47:37.102Z,5.33
2022-12-19T19:50:18.394Z,5.30
2022-12-19T19:52:59.683Z,5.35
2022-12-19T19:55:38.513Z,5.36
2022-12-19T19:58:19.234Z,5.37
2022-12-19T20:00:59.131Z,5.47
2022-12-19T20:03:41.810Z,5.46
2022-12-19T20:06:21.862Z,5.48
2022-12-19T20:08:59.731Z,5.53
2022-12-19T20:11:42.165Z,5.54
2022-12-19T20:14:22.948Z,5.56
2022-12-19T20:17:25.528Z,5.57
2022-12-19T20:20:07.666Z,5.66
2022-12-19T20:22:47.900Z,5.60
2022-12-19T20:25:27.741Z,5.62
2022-12-19T20:28:07.853Z,5.67
2022-12-19T20:30:47.211Z,5.64
2022-12-19T20:33:27.187Z,5.62
2022-12-19T20:36:07.812Z,5.62
2022-12-19T20:38:48.445Z,5.55
2022-12-19T20:41:29.874Z,5.57
2022-12-19T20:44:11.157Z,5.52
2022-12-19T20:46:51.105Z,5.50
2022-12-19T20:49:32.544Z,5.49
2022-12-19T20:52:13.744Z,5.53
2022-12-19T20:54:53.557Z,5.59
2022-12-19T20:57:33.382Z,5.58
2022-12-19T21:00:15.356Z,5.55
2022-12-19T21:05:57.128Z,5.54
2022-12-19T21:08:38.519Z,5.54
2022-12-19T21:11:21.732Z,5.52
2022-12-19T21:14:02.634Z,5.52
2022-12-19T21:16:42.596Z,5.52
2022-12-19T21:19:25.927Z,5.55
2022-12-19T21:22:06.845Z,5.54
2022-12-19T21:24:48.748Z,5.49
2022-12-19T21:27:31.701Z,5.50
2022-12-19T21:30:13.357Z,5.39
2022-12-19T21:32:54.107Z,5.46
2022-12-19T21:35:35.478Z,5.44
2022-12-19T21:38:15.537Z,5.48
2022-12-19T21:40:58.728Z,5.49
2022-12-19T21:43:41.782Z,5.48
2022-12-19T21:46:24.952Z,5.48
2022-12-19T21:49:08.417Z,5.43
2022-12-19T21:51:50.835Z,5.39
2022-12-19T21:54:33.744Z,5.36
2022-12-19T21:57:14.785Z,5.32
2022-12-19T21:59:54.571Z,5.32
2022-12-19T22:02:34.876Z,5.30
2022-12-19T22:05:15.813Z,5.30
2022-12-19T22:07:55.601Z,5.30
2022-12-19T22:10:35.396Z,5.30
2022-12-19T22:13:15.413Z,5.37
2022-12-19T22:15:59.799Z,5.36
2022-12-19T22:18:40.030Z,5.36
2022-12-19T22:21:21.235Z,5.37
2022-12-19T22:24:03.155Z,5.37
2022-12-19T22:27:01.867Z,5.38
2022-12-19T22:29:49.132Z,5.42
2022-12-19T22:32:29.358Z,5.46
2022-12-19T22:35:09.204Z,5.49
2022-12-19T22:37:50.435Z,5.52
2022-12-19T22:40:33.049Z,5.59
2022-12-19T22:43:13.150Z,5.59
2022-12-19T22:45:53.342Z,5.66
2022-12-19T22:48:34.327Z,5.70
2022-12-19T22:51:12.320Z,5.69
2022-12-19T22:53:52.308Z,5.73
2022-12-19T22:56:34.389Z,5.76
2022-12-19T22:59:15.417Z,5.77
2022-12-19T23:01:55.092Z,5.83
2022-12-19T23:04:36.897Z,5.83
2022-12-19T23:07:17.904Z,5.86
2022-12-19T23:09:59.176Z,5.88
2022-12-19T23:12:41.701Z,5.86
2022-12-19T23:15:22.045Z,5.89
2022-12-19T23:18:01.812Z,5.91
2022-12-19T23:20:43.705Z,5.89
2022-12-19T23:23:26.597Z,5.90
2022-12-19T23:26:14.988Z,5.88
2022-12-19T23:28:56.360Z,5.89
2022-12-19T23:31:39.753Z,5.90
2022-12-19T23:34:19.875Z,5.93
2022-12-19T23:37:15.276Z,5.92
2022-12-19T23:39:55.453Z,5.94
2022-12-19T23:42:35.309Z,5.93
2022-12-19T23:45:14.814Z,5.97
2022-12-19T23:47:54.871Z,5.97
2022-12-19T23:50:34.686Z,5.90
2022-12-19T23:53:16.493Z,5.87
2022-12-19T23:55:57.518Z,5.84
2022-12-19T23:58:37.398Z,5.85
